Gray Army Air Field
KGRF : now visible

Airfield :











YOU CAN JOIN US ON...

 
LOGIN :

Register | Disclaimer

   EN    FR    IT 

 









Legend :    VFR   Marginal VFR   IFR   Intensive IFR   Very Intensive IFR
Visi :
Ceiling :
>= 8 km
>= 3000ft
5 to 8 km
1000 to 3000 ft
1500m to 5 km
500 to 1000 ft
800 to 1500m
200 to 500 ft
< 800m
< 200 ft
Symbols :   Thunderstorms  Fog  Heavy snow  Heavy precipitations  Wind > 20 kt






- Airport Elevation : 300 ft


KGRF - Gray Army Air Field

CURRENT METAR :
  • 190958Z 00000KT 10SM FEW029 09/09 A2982 RMK AO2A SLP102 T00940086 $

EXPIRED METARs :
  • 190858Z 14003KT 10SM SCT028 10/09 A2980 RMK AO2A SLP095 T01010092 50006 $
  • 190758Z 14005KT 10SM BKN070 11/10 A2980 RMK AO2A SLP095 T01070096 401780106 $
  • 190658Z 12003KT 10SM SCT041 BKN070 11/10 A2980 RMK AO2A SLP095 T01080097 $

TAF TAF KGRF
Valid from the 19 at 05:00 until the 20 at 11:00 UTC


190500Z 1905/2011 20010KT 9999 -SHRA OVC040 610705 QNH2976INS
BECMG 1909/1910 21010KT 9999 NSW BKN040 610705 QNH2980INS
BECMG 1916/1917 22010KT 9999 -SHRA SCT020 BKN030 610705 QNH2997INS
BECMG 2001/2002 23010G20KT 9999 NSW SCT020 QNH3012INS TX16/1920Z TN12/1906Z
KZSE FIR / North America



MET'MAP, your aeronautical weather chart ! - Copyright ORBIFLY December 2007 - Disclaimer

ORBIFLY MET'MAP TEAM :

Programming & Development : Alexandra Zaïnal
Concept & original design : Baudouin d'Aumeries
Assistance for programming : Marc-Olivier Méhu
Technical & hardware support : Manuel Goepfert

Contact : metmap@orbifly.com




SOURCES & CREDITS :

   NOAA       Earth
Advisory